createdAt,value
2022-08-08T04:19:27.543Z,99.90
2022-08-08T04:26:18.235Z,99.90
2022-08-08T04:28:56.486Z,99.90
2022-08-08T04:47:01.532Z,99.90
2022-08-08T05:32:04.690Z,99.90
2022-08-08T05:35:01.698Z,99.90
2022-08-08T05:38:31.814Z,99.90
2022-08-08T05:41:28.504Z,99.90
2022-08-08T05:47:25.313Z,99.90
2022-08-08T05:51:16.201Z,99.90
2022-08-08T05:54:50.261Z,99.90
2022-08-08T05:58:30.136Z,99.90
2022-08-08T06:05:43.378Z,99.90
2022-08-08T06:09:41.546Z,99.90
2022-08-08T06:12:08.398Z,99.90
2022-08-08T06:14:49.371Z,99.90
2022-08-08T06:17:51.453Z,99.90
2022-08-08T06:21:11.299Z,99.90
2022-08-08T06:24:22.851Z,99.90
2022-08-08T06:38:27.576Z,99.90
2022-08-08T06:41:22.390Z,99.90
2022-08-08T06:48:04.284Z,99.90
2022-08-08T07:14:00.539Z,99.90
2022-08-08T07:43:35.294Z,99.90
2022-08-08T07:46:30.471Z,99.90
2022-08-08T07:49:03.365Z,99.90
2022-08-08T07:51:54.318Z,99.90
2022-08-08T07:54:48.112Z,99.90
2022-08-08T07:57:36.245Z,99.90
2022-08-08T08:00:50.181Z,99.90
2022-08-08T08:04:05.410Z,99.90
2022-08-08T08:10:42.020Z,99.80
2022-08-08T08:20:59.028Z,96.70
2022-08-08T08:24:02.636Z,96.90
2022-08-08T08:27:54.718Z,96.90
2022-08-08T08:31:04.593Z,96.00
2022-08-08T08:33:36.350Z,92.80
2022-08-08T08:40:01.064Z,88.40
2022-08-08T08:42:37.898Z,84.40
2022-08-08T08:45:21.220Z,81.70
2022-08-08T08:58:41.584Z,71.30
2022-08-08T09:01:14.777Z,67.40
2022-08-08T09:03:50.676Z,65.30
2022-08-08T09:06:28.762Z,62.20
2022-08-08T09:09:47.526Z,60.60
2022-08-08T09:12:20.406Z,58.70
2022-08-08T09:14:53.818Z,61.40
2022-08-08T09:17:41.877Z,59.10
2022-08-08T09:22:01.170Z,56.00
2022-08-08T09:23:24.528Z,55.70
2022-08-08T09:26:02.144Z,54.60
2022-08-08T09:28:37.734Z,53.70
2022-08-08T09:31:15.636Z,52.20
2022-08-08T09:34:15.066Z,50.90
2022-08-08T09:36:35.841Z,49.20
2022-08-08T09:39:10.334Z,47.50
2022-08-08T09:42:21.013Z,46.30
2022-08-08T09:45:15.817Z,44.60
2022-08-08T09:48:04.778Z,44.70
2022-08-08T09:50:44.010Z,44.00
2022-08-08T09:53:31.985Z,44.70
2022-08-08T09:56:12.522Z,44.60
2022-08-08T09:59:20.019Z,45.00
2022-08-08T10:02:00.199Z,46.20
2022-08-08T10:04:42.456Z,46.60
2022-08-08T10:07:16.334Z,45.20
2022-08-08T10:10:00.581Z,45.00
2022-08-08T10:12:53.298Z,44.90
2022-08-08T10:15:25.996Z,44.60
2022-08-08T10:18:06.251Z,44.20
2022-08-08T10:20:57.368Z,42.60
2022-08-08T10:23:58.366Z,42.00
2022-08-08T10:26:58.914Z,42.30
2022-08-08T10:29:58.871Z,40.80
2022-08-08T10:32:37.485Z,41.50
2022-08-08T10:36:07.208Z,41.50
2022-08-08T10:38:05.155Z,41.40
2022-08-08T10:40:32.882Z,40.60
2022-08-08T10:43:02.876Z,41.80
2022-08-08T10:45:38.921Z,42.40
2022-08-08T10:48:11.896Z,41.90
2022-08-08T10:50:39.748Z,40.90
2022-08-08T10:53:12.900Z,42.20
2022-08-08T10:55:46.908Z,42.00
2022-08-08T10:58:15.654Z,40.90
2022-08-08T11:00:53.407Z,40.60
2022-08-08T11:04:00.688Z,40.30
2022-08-08T11:06:36.543Z,40.50
2022-08-08T11:09:19.885Z,40.60
2022-08-08T11:12:06.499Z,40.70
2022-08-08T11:14:59.896Z,41.10
2022-08-08T11:18:00.584Z,41.60
2022-08-08T11:20:28.360Z,40.50
2022-08-08T11:23:05.258Z,40.10
2022-08-08T11:25:52.780Z,40.50
2022-08-08T11:28:30.476Z,41.10
2022-08-08T11:31:00.613Z,40.50
2022-08-08T11:33:51.850Z,39.90
2022-08-08T11:36:16.135Z,39.50
2022-08-08T11:38:54.808Z,39.90
2022-08-08T11:41:24.508Z,41.30
2022-08-08T11:43:53.713Z,41.90
2022-08-08T11:46:24.483Z,42.10
2022-08-08T11:48:52.815Z,41.10
2022-08-08T11:51:30.848Z,40.90
2022-08-08T11:54:31.567Z,40.70
2022-08-08T11:57:13.872Z,41.80
2022-08-08T12:00:02.260Z,41.90
2022-08-08T12:02:34.154Z,41.90
2022-08-08T12:05:02.585Z,39.30
2022-08-08T12:07:29.450Z,38.80
2022-08-08T12:10:09.735Z,40.10
2022-08-08T12:12:48.008Z,39.20
2022-08-08T12:15:27.797Z,38.40
2022-08-08T12:17:55.203Z,38.20
2022-08-08T12:20:23.284Z,38.90
2022-08-08T12:22:53.816Z,38.20
2022-08-08T12:25:30.114Z,37.60
2022-08-08T12:28:16.492Z,37.70
2022-08-08T12:30:49.907Z,36.20
2022-08-08T12:33:20.940Z,36.60
2022-08-08T12:35:52.184Z,36.80
2022-08-08T12:38:20.259Z,36.30
2022-08-08T12:41:00.088Z,35.70
2022-08-08T12:43:46.454Z,36.90
2022-08-08T12:46:25.406Z,36.50
2022-08-08T12:51:58.516Z,36.50
2022-08-08T12:54:38.112Z,35.80
2022-08-08T12:57:17.943Z,35.20
2022-08-08T13:00:04.785Z,34.40
2022-08-08T13:02:42.020Z,34.70
2022-08-08T13:05:26.827Z,35.20
2022-08-08T13:08:16.787Z,34.70
2022-08-08T13:10:56.502Z,33.70
2022-08-08T13:13:34.675Z,33.90
2022-08-08T13:16:25.461Z,34.40
2022-08-08T13:19:05.478Z,34.50
2022-08-08T13:21:55.516Z,34.50
2022-08-08T13:24:42.549Z,34.20
2022-08-08T13:27:18.072Z,34.30
2022-08-08T13:29:56.965Z,33.60
2022-08-08T13:32:26.575Z,33.30
2022-08-08T13:34:55.677Z,33.80
2022-08-08T13:37:51.905Z,33.70
2022-08-08T13:40:11.938Z,33.30
2022-08-08T13:42:45.281Z,34.00
2022-08-08T13:45:13.189Z,33.60
2022-08-08T13:47:55.839Z,34.10
2022-08-08T13:50:39.877Z,33.50
2022-08-08T13:53:24.863Z,33.30
2022-08-08T13:56:12.380Z,32.90
2022-08-08T13:58:56.022Z,34.60
2022-08-08T14:01:32.951Z,35.60
2022-08-08T14:04:21.156Z,35.90
2022-08-08T14:06:48.692Z,35.00
2022-08-08T14:09:24.669Z,35.00
2022-08-08T14:11:59.966Z,34.60
2022-08-08T14:14:44.172Z,34.90
2022-08-08T14:17:22.455Z,35.20
2022-08-08T14:20:07.138Z,34.50
2022-08-08T14:22:43.064Z,35.20
2022-08-08T14:25:15.349Z,35.40
2022-08-08T14:27:59.706Z,35.40
2022-08-08T14:30:34.576Z,35.40
2022-08-08T14:33:02.373Z,35.40
2022-08-08T14:35:49.649Z,35.00
2022-08-08T14:39:15.083Z,36.10
2022-08-08T14:41:54.185Z,34.90
2022-08-08T14:44:35.085Z,36.10
2022-08-08T14:47:16.728Z,36.80
2022-08-08T14:50:11.489Z,36.60
2022-08-08T14:52:48.197Z,37.00
2022-08-08T14:55:35.229Z,38.90
2022-08-08T14:58:16.600Z,39.10
2022-08-08T15:13:15.622Z,43.60
2022-08-08T15:20:14.232Z,45.20
2022-08-08T16:28:35.969Z,51.10
2022-08-08T17:14:27.387Z,52.70
2022-08-08T17:25:52.108Z,54.00
2022-08-08T18:22:50.130Z,58.00
2022-08-08T19:34:30.432Z,71.60
2022-08-08T20:11:22.689Z,83.40
2022-08-08T20:44:37.545Z,89.70
2022-08-08T20:47:36.059Z,90.40
2022-08-08T21:04:29.524Z,91.50
2022-08-08T22:32:49.414Z,99.90
2022-08-08T23:06:47.648Z,99.90
2022-08-08T23:25:05.356Z,99.90
2022-08-08T23:27:47.913Z,99.90
2022-08-08T23:30:22.599Z,99.90
2022-08-08T23:32:59.373Z,99.90
2022-08-08T23:36:12.281Z,99.90
2022-08-08T23:49:07.546Z,99.90
2022-08-08T23:58:49.119Z,99.90
